Time;durP1;ratioP1;P1;durP2;ratioP2;P2;SDS_P1;SDS_P2;PMS_P1;PMS_P2;Temp;Humidity;BMP_temperature;BMP_pressure;BME280_temperature;BME280_humidity;BME280_pressure;Samples;Min_cycle;Max_cycle;Signal;HPM_P1;HPM_P2
2021/07/15 00:01:33;;;;;;;1999.90;999.90;;;;;;;23.67;93.90;97703.25;5052599;28;20052;-67
2021/07/15 00:04:00;;;;;;;1999.90;999.90;;;;;;;23.37;95.16;97702.13;5053545;28;20064;-67
2021/07/15 00:06:35;;;;;;;1999.90;999.90;;;;;;;23.18;96.79;97714.94;5052389;28;20115;-67
2021/07/15 00:09:04;;;;;;;1999.90;999.90;;;;;;;23.42;95.40;97721.41;5052697;28;20110;-67
2021/07/15 00:11:37;;;;;;;1999.90;999.90;;;;;;;23.51;94.70;97720.84;5052833;28;20476;-67
2021/07/15 00:14:04;;;;;;;1999.90;999.90;;;;;;;23.43;94.79;97720.16;5051745;28;20350;-67
2021/07/15 00:16:31;;;;;;;1999.90;999.90;;;;;;;23.65;93.75;97719.81;5052320;28;20103;-67
2021/07/15 00:18:58;;;;;;;1999.90;999.90;;;;;;;23.62;93.92;97729.94;5053545;28;20136;-67
2021/07/15 00:21:27;;;;;;;1999.90;999.90;;;;;;;23.56;94.23;97742.94;5052483;28;20040;-67
2021/07/15 00:23:54;;;;;;;1999.90;999.90;;;;;;;23.47;94.51;97728.56;5050720;28;20045;-67
2021/07/15 00:26:22;;;;;;;1999.90;999.90;;;;;;;23.41;94.77;97722.63;5053212;28;20389;-67
2021/07/15 00:28:49;;;;;;;1999.90;999.90;;;;;;;23.43;94.56;97727.81;5051902;28;20045;-67
2021/07/15 00:31:16;;;;;;;1999.90;999.90;;;;;;;23.39;94.31;97730.72;5051843;28;20053;-67
2021/07/15 00:33:45;;;;;;;1999.90;999.90;;;;;;;23.30;94.88;97731.25;5053115;28;20072;-67
2021/07/15 00:36:12;;;;;;;1999.90;999.90;;;;;;;23.28;95.08;97707.50;5051471;28;20049;-67
2021/07/15 00:38:39;;;;;;;1999.90;999.90;;;;;;;22.86;97.65;97719.75;5051858;28;20045;-67
2021/07/15 00:41:07;;;;;;;1999.90;999.90;;;;;;;23.10;96.78;97719.84;5051960;28;20044;-67
2021/07/15 00:43:34;;;;;;;1999.90;999.90;;;;;;;23.35;95.16;97710.22;5051613;28;20048;-67
2021/07/15 00:46:00;;;;;;;1999.90;999.90;;;;;;;23.31;94.90;97713.13;5051748;28;20049;-67
2021/07/15 00:48:27;;;;;;;1999.90;999.90;;;;;;;23.41;94.84;97713.38;5052670;28;20041;-67
2021/07/15 00:50:54;;;;;;;1999.90;999.90;;;;;;;23.38;94.69;97710.16;5050941;28;20117;-67
2021/07/15 00:53:21;;;;;;;1999.90;999.90;;;;;;;23.00;96.17;97717.97;5043642;28;20049;-67
2021/07/15 00:55:47;;;;;;;1999.90;999.90;;;;;;;22.41;99.76;97725.56;5052524;28;20052;-67
2021/07/15 00:58:16;;;;;;;1999.90;999.90;;;;;;;21.98;100.00;97729.63;5050907;28;20049;-67
2021/07/15 01:00:46;;;;;;;1999.90;999.90;;;;;;;22.16;100.00;97748.34;5050562;28;20358;-67
2021/07/15 01:03:14;;;;;;;1999.90;999.90;;;;;;;22.58;99.62;97753.94;5050461;28;20467;-67
2021/07/15 01:05:43;;;;;;;1999.90;999.90;;;;;;;22.58;99.26;97765.22;5050989;28;20491;-67
2021/07/15 01:08:12;;;;;;;1999.90;999.90;;;;;;;22.77;97.92;97764.56;5051046;28;20045;-67
2021/07/15 01:10:51;;;;;;;1999.90;999.90;;;;;;;22.96;97.37;97751.84;5051898;28;20045;-67
2021/07/15 01:13:33;;;;;;;1999.90;999.90;;;;;;;23.13;95.93;97755.66;5051997;28;20048;-67
2021/07/15 01:16:18;;;;;;;;;;;;;;;23.13;95.55;97761.28;5049993;28;20102;-67
2021/07/15 01:18:56;;;;;;;1999.90;999.90;;;;;;;23.17;95.04;97767.69;5050993;28;19924;-67
2021/07/15 01:21:41;;;;;;;1999.90;999.90;;;;;;;23.30;94.48;97756.63;5050855;28;20485;-67
2021/07/15 01:24:30;;;;;;;1999.90;999.90;;;;;;;23.19;94.67;97751.16;5051978;28;20053;-67
2021/07/15 01:27:28;;;;;;;1999.90;999.90;;;;;;;23.21;94.82;97756.38;5050450;28;20068;-67
2021/07/15 01:30:01;;;;;;;1999.90;999.90;;;;;;;23.32;93.68;97762.63;5040857;28;20098;-67
2021/07/15 01:32:34;;;;;;;1999.90;999.90;;;;;;;23.35;93.09;97775.09;5051970;28;20126;-67
2021/07/15 01:35:05;;;;;;;1999.90;999.90;;;;;;;23.02;94.33;97780.38;5051750;28;20064;-67
2021/07/15 01:37:33;;;;;;;1999.90;999.90;;;;;;;23.04;95.34;97790.00;5047065;28;20048;-67
2021/07/15 01:40:03;;;;;;;1999.90;999.90;;;;;;;22.75;96.25;97778.28;5050864;28;20052;-67
2021/07/15 01:42:31;;;;;;;1999.90;999.90;;;;;;;22.84;95.87;97775.75;5052116;28;20056;-67
2021/07/15 01:44:58;;;;;;;1999.90;999.90;;;;;;;22.68;96.57;97770.72;5049102;28;20071;-67
2021/07/15 01:47:27;;;;;;;1999.90;999.90;;;;;;;22.65;97.02;97776.41;5043821;28;20040;-67
2021/07/15 01:49:57;;;;;;;1999.90;999.90;;;;;;;22.93;95.76;97771.63;5051583;28;20110;-67
2021/07/15 01:52:24;;;;;;;1999.90;999.90;;;;;;;22.93;95.61;97768.81;5049960;28;20095;-67
2021/07/15 01:54:52;;;;;;;1999.90;999.90;;;;;;;22.84;96.14;97764.47;5050172;28;20103;-67
2021/07/15 01:57:20;;;;;;;1999.90;999.90;;;;;;;23.19;93.69;97753.97;5051137;28;20346;-67
2021/07/15 01:59:49;;;;;;;1999.90;999.90;;;;;;;23.06;94.24;97771.84;5049651;28;20060;-67
2021/07/15 02:02:17;;;;;;;1999.90;999.90;;;;;;;23.13;94.19;97761.28;5049333;28;20048;-67
2021/07/15 02:04:52;;;;;;;1999.90;999.90;;;;;;;23.22;93.21;97763.59;5050047;28;20124;-67
2021/07/15 02:07:21;;;;;;;1999.90;999.90;;;;;;;23.11;93.63;97762.97;5050345;28;20048;-67
2021/07/15 02:09:50;;;;;;;1999.90;999.90;;;;;;;22.71;96.32;97754.19;5049712;28;20102;-67
2021/07/15 02:12:19;;;;;;;1999.90;999.90;;;;;;;22.71;96.41;97755.00;5050680;28;20045;-67
2021/07/15 02:14:51;;;;;;;1999.90;999.90;;;;;;;22.77;95.89;97756.13;5051005;28;20430;-67
2021/07/15 02:17:18;;;;;;;1999.90;999.90;;;;;;;22.75;96.21;97752.94;5049300;28;20142;-67
2021/07/15 02:19:46;;;;;;;1999.90;999.90;;;;;;;22.99;95.33;97755.84;5050661;28;20071;-67
2021/07/15 02:22:13;;;;;;;1999.90;999.90;;;;;;;23.16;94.64;97754.84;5050581;28;20115;-67
2021/07/15 02:24:40;;;;;;;1999.90;999.90;;;;;;;23.23;93.84;97748.28;5049456;28;20261;-67
2021/07/15 02:27:08;;;;;;;1999.90;999.90;;;;;;;23.28;93.75;97744.19;5049908;28;20434;-67
2021/07/15 02:29:36;;;;;;;1999.90;999.90;;;;;;;23.34;93.22;97734.81;5049630;28;20380;-67
2021/07/15 02:32:09;;;;;;;1999.90;999.90;;;;;;;23.11;94.31;97724.28;5045712;28;20385;-67
2021/07/15 02:34:38;;;;;;;1999.90;999.90;;;;;;;23.32;93.29;97728.00;5049889;28;20052;-67
2021/07/15 02:37:06;;;;;;;1999.90;999.90;;;;;;;23.34;93.05;97748.94;5050461;28;20044;-67
2021/07/15 02:39:32;;;;;;;1999.90;999.90;;;;;;;23.04;94.67;97741.25;5049120;28;20052;-67
2021/07/15 02:41:59;;;;;;;1999.90;999.90;;;;;;;22.98;95.33;97726.06;5049418;28;20080;-67
2021/07/15 02:44:27;;;;;;;1999.90;999.90;;;;;;;23.17;94.33;97716.94;5050781;28;20391;-67
2021/07/15 02:46:53;;;;;;;1999.90;999.90;;;;;;;22.99;94.47;97703.06;5048852;28;20106;-67
2021/07/15 02:49:20;;;;;;;1999.90;999.90;;;;;;;22.89;95.40;97689.94;5049338;28;20078;-67
2021/07/15 02:51:47;;;;;;;1999.90;999.90;;;;;;;23.07;94.23;97688.88;5050505;28;20049;-67
2021/07/15 02:54:14;;;;;;;1999.90;999.90;;;;;;;23.04;94.04;97691.34;5048927;28;20131;-67
2021/07/15 02:56:47;;;;;;;1999.90;999.90;;;;;;;23.30;92.56;97679.66;5049122;28;20080;-67
2021/07/15 02:59:51;;;;;;;1999.90;999.90;;;;;;;23.21;92.65;97683.84;5049952;28;20098;-67
2021/07/15 03:02:27;;;;;;;1999.90;999.90;;;;;;;23.01;93.37;97692.16;5057746;28;20044;-68
2021/07/15 03:05:14;;;;;;;1999.90;999.90;;;;;;;22.53;95.77;97709.34;5048879;28;20045;-67
2021/07/15 03:07:47;;;;;;;1999.90;999.90;;;;;;;21.87;99.84;97716.88;5049100;28;20049;-67
2021/07/15 03:10:17;;;;;;;1999.90;999.90;;;;;;;22.16;98.37;97725.81;5048303;28;20098;-67
2021/07/15 03:12:44;;;;;;;1999.90;999.90;;;;;;;22.19;98.51;97733.44;5049283;28;20053;-67
2021/07/15 03:15:12;;;;;;;1999.90;999.90;;;;;;;21.56;100.00;97739.28;5048830;28;20110;-67
2021/07/15 03:17:44;;;;;;;1999.90;999.90;;;;;;;21.72;100.00;97742.34;5049520;28;20053;-67
2021/07/15 03:20:18;;;;;;;1999.90;999.90;;;;;;;21.95;100.00;97744.53;5048816;28;20049;-67
2021/07/15 03:22:49;;;;;;;1999.90;999.90;;;;;;;21.88;100.00;97752.25;5048715;28;20049;-67
2021/07/15 03:25:17;;;;;;;1999.90;999.90;;;;;;;21.76;100.00;97751.53;5049657;28;20045;-67
2021/07/15 03:27:46;;;;;;;1999.90;999.90;;;;;;;22.20;99.12;97751.13;5049180;28;20053;-67
2021/07/15 03:30:14;;;;;;;1999.90;999.90;;;;;;;22.03;100.00;97761.34;5048871;28;20427;-67
2021/07/15 03:32:43;;;;;;;1999.90;999.90;;;;;;;21.89;100.00;97759.47;5049663;28;20337;-67
2021/07/15 03:35:11;;;;;;;1999.90;999.90;;;;;;;22.07;99.04;97760.09;5050352;28;20155;-67
2021/07/15 03:37:40;;;;;;;1999.90;999.90;;;;;;;21.50;100.00;97761.41;5048842;28;20385;-67
2021/07/15 03:40:09;;;;;;;1999.90;999.90;;;;;;;21.93;100.00;97755.41;5037760;28;20126;-67
2021/07/15 03:42:38;;;;;;;1999.90;999.90;;;;;;;21.97;100.00;97755.38;5049593;28;20639;-68
2021/07/15 03:45:06;;;;;;;1999.90;999.90;;;;;;;21.83;100.00;97763.97;5048398;28;20045;-68
2021/07/15 03:47:35;;;;;;;1999.90;999.90;;;;;;;21.56;100.00;97765.38;5048861;28;20423;-68
2021/07/15 03:50:03;;;;;;;1999.90;999.90;;;;;;;21.03;100.00;97760.88;5048637;28;20444;-67
2021/07/15 03:52:30;;;;;;;1999.90;999.90;;;;;;;20.87;100.00;97756.56;5048959;28;20442;-67
2021/07/15 03:54:59;;;;;;;1999.90;999.90;;;;;;;21.26;100.00;97765.97;5048615;28;20052;-68
2021/07/15 03:57:28;;;;;;;1999.90;999.90;;;;;;;21.44;100.00;97772.25;5048403;28;20057;-68
2021/07/15 03:59:56;;;;;;;1999.90;999.90;;;;;;;21.01;100.00;97774.53;5048884;28;20095;-67
2021/07/15 04:02:26;;;;;;;1999.90;999.90;;;;;;;21.10;100.00;97766.47;5047710;28;20468;-67
2021/07/15 04:04:56;;;;;;;1999.90;999.90;;;;;;;21.28;100.00;97777.59;5049490;28;20049;-68
2021/07/15 04:07:29;;;;;;;1999.90;999.90;;;;;;;20.64;100.00;97773.88;5048249;28;20056;-67
2021/07/15 04:10:00;;;;;;;1999.90;999.90;;;;;;;20.85;100.00;97767.38;5046571;28;20048;-68
2021/07/15 04:12:28;;;;;;;1999.90;999.90;;;;;;;20.67;100.00;97767.47;5052957;28;20056;-67
2021/07/15 04:15:03;;;;;;;1999.90;999.90;;;;;;;20.66;100.00;97763.03;5052652;28;20422;-67
2021/07/15 04:17:43;;;;;;;1999.90;999.90;;;;;;;21.00;100.00;97768.09;5048925;28;20060;-67
2021/07/15 04:20:11;;;;;;;1999.90;999.90;;;;;;;21.21;100.00;97766.38;5052177;28;20045;-68
2021/07/15 04:22:41;;;;;;;1999.90;999.90;;;;;;;21.27;100.00;97765.56;5052429;28;20397;-67
2021/07/15 04:25:10;;;;;;;1999.90;999.90;;;;;;;21.12;100.00;97752.78;5051152;28;20090;-68
2021/07/15 04:27:38;;;;;;;1999.90;999.90;;;;;;;21.52;100.00;97758.19;5051907;28;20099;-68
2021/07/15 04:30:08;;;;;;;1999.90;999.90;;;;;;;22.38;100.00;97745.34;5052788;28;20083;-68
2021/07/15 04:32:54;;;;;;;1999.90;999.90;;;;;;;22.73;100.00;97746.13;5051697;28;20397;-68
2021/07/15 04:35:22;;;;;;;1999.90;999.90;;;;;;;23.15;99.85;97733.50;5046347;28;20079;-68
2021/07/15 04:37:51;;;;;;;1999.90;999.90;;;;;;;23.66;97.38;97738.34;5052079;28;20333;-68
2021/07/15 04:40:21;;;;;;;1999.90;999.90;;;;;;;23.97;95.53;97735.41;5052727;28;20134;-68
2021/07/15 04:42:53;;;;;;;1999.90;999.90;;;;;;;24.23;92.32;97734.50;5050037;28;20111;-68
2021/07/15 04:45:25;;;;;;;1999.90;999.90;;;;;;;24.50;91.06;97742.06;5052137;28;20045;-68
2021/07/15 04:47:53;;;;;;;1999.90;999.90;;;;;;;24.65;89.75;97741.81;5052200;28;20049;-68
2021/07/15 04:50:24;;;;;;;1999.90;999.90;;;;;;;24.56;88.76;97746.00;5051468;28;20049;-68
2021/07/15 04:52:59;;;;;;;1999.90;999.90;;;;;;;23.96;89.58;97748.72;5051777;28;20294;-67
2021/07/15 04:55:27;;;;;;;1999.90;999.90;;;;;;;23.53;92.26;97763.53;5051272;28;20053;-67
2021/07/15 04:57:54;;;;;;;1999.90;999.90;;;;;;;23.20;94.25;97766.84;5050300;28;20571;-67
2021/07/15 05:00:21;;;;;;;1999.90;999.90;;;;;;;22.66;96.79;97773.16;5051264;28;20045;-67
2021/07/15 05:02:56;;;;;;;1999.90;999.90;;;;;;;22.43;98.45;97765.38;5049595;28;20412;-67
2021/07/15 05:05:23;;;;;;;1999.90;999.90;;;;;;;22.80;97.21;97772.19;5050892;28;20053;-67
2021/07/15 05:07:49;;;;;;;1999.90;999.90;;;;;;;22.73;97.10;97763.81;5050731;28;20052;-67
2021/07/15 05:10:16;;;;;;;1999.90;999.90;;;;;;;22.96;95.71;97767.97;5051992;28;20052;-67
2021/07/15 05:12:47;;;;;;;1999.90;999.90;;;;;;;23.29;94.21;97771.16;5052050;28;20058;-67
2021/07/15 05:15:13;;;;;;;1999.90;999.90;;;;;;;23.20;94.91;97780.94;5044510;28;20115;-67
2021/07/15 05:17:40;;;;;;;1999.90;999.90;;;;;;;23.38;94.17;97768.59;5040665;28;20099;-67
2021/07/15 05:20:08;;;;;;;1999.90;999.90;;;;;;;23.34;94.37;97768.66;5051218;28;20049;-67
2021/07/15 05:22:36;;;;;;;1999.90;999.90;;;;;;;23.17;95.10;97778.97;5050418;28;20098;-67
2021/07/15 05:25:07;;;;;;;1999.90;999.90;;;;;;;22.73;96.82;97772.25;5051456;28;20045;-67
2021/07/15 05:27:34;;;;;;;1999.90;999.90;;;;;;;23.07;95.08;97779.09;5051193;28;20095;-68
2021/07/15 05:30:01;;;;;;;1999.90;999.90;;;;;;;23.16;95.30;97782.22;5050471;28;20418;-67
2021/07/15 05:32:27;;;;;;;1999.90;999.90;;;;;;;23.19;94.86;97776.53;5051382;28;20071;-67
2021/07/15 05:34:55;;;;;;;1999.90;999.90;;;;;;;22.81;97.02;97776.59;5051082;28;20057;-67
2021/07/15 05:37:22;;;;;;;1999.90;999.90;;;;;;;22.33;100.00;97761.47;5050319;28;20115;-67
2021/07/15 05:39:48;;;;;;;1999.90;999.90;;;;;;;22.97;98.14;97763.91;5050703;28;20053;-67
2021/07/15 05:42:15;;;;;;;1999.90;999.90;;;;;;;22.81;99.19;97765.31;5050801;28;20045;-67
2021/07/15 05:44:41;;;;;;;1999.90;999.90;;;;;;;23.43;96.92;97768.09;5050177;28;20431;-67
2021/07/15 05:47:09;;;;;;;1999.90;999.90;;;;;;;23.34;95.15;97763.03;5050665;28;20447;-67
2021/07/15 05:49:39;;;;;;;1999.90;999.90;;;;;;;23.47;95.37;97763.22;5051404;28;20116;-67
2021/07/15 05:52:11;;;;;;;1999.90;999.90;;;;;;;23.87;94.32;97771.88;5050310;28;20041;-67
2021/07/15 05:54:38;;;;;;;1999.90;999.90;;;;;;;23.95;93.73;97774.56;5045975;28;20048;-67
2021/07/15 05:57:06;;;;;;;1999.90;999.90;;;;;;;24.11;93.50;97783.16;5051091;28;20126;-67
2021/07/15 05:59:33;;;;;;;1999.90;999.90;;;;;;;23.90;94.30;97784.34;5050288;28;20126;-68
2021/07/15 06:02:00;;;;;;;1999.90;999.90;;;;;;;24.03;94.23;97787.34;5049716;28;20504;-68
2021/07/15 06:04:28;;;;;;;1999.90;999.90;;;;;;;24.02;93.59;97777.28;5049550;28;20080;-67
2021/07/15 06:06:54;;;;;;;1999.90;999.90;;;;;;;24.30;91.87;97783.66;5050258;28;20430;-67
2021/07/15 06:09:21;;;;;;;1999.90;999.90;;;;;;;24.43;90.37;97776.13;5050001;28;20130;-67
2021/07/15 06:11:48;;;;;;;1999.90;999.90;;;;;;;24.42;90.06;97791.47;5050949;28;20342;-67
2021/07/15 06:14:14;;;;;;;1999.90;999.90;;;;;;;24.00;91.63;97796.69;5050200;28;20053;-67
2021/07/15 06:16:41;;;;;;;1999.90;999.90;;;;;;;23.52;94.19;97807.06;5049992;28;20053;-67
2021/07/15 06:19:07;;;;;;;1999.90;999.90;;;;;;;23.06;97.36;97816.97;5050163;28;20040;-67
2021/07/15 06:21:34;;;;;;;1999.90;999.90;;;;;;;23.31;95.29;97833.56;5049087;28;20052;-67
2021/07/15 06:24:01;;;;;;;1999.90;999.90;;;;;;;23.38;95.36;97841.94;5049862;28;20059;-66
2021/07/15 06:26:27;;;;;;;1999.90;999.90;;;;;;;22.77;98.22;97851.94;5050936;28;20048;-66
2021/07/15 06:28:54;;;;;;;1999.90;999.90;;;;;;;22.96;97.47;97861.00;5049766;28;20094;-66
2021/07/15 06:31:21;;;;;;;1999.90;999.90;;;;;;;23.17;96.29;97863.56;5049636;28;20049;-66
2021/07/15 06:33:47;;;;;;;1999.90;999.90;;;;;;;23.14;96.59;97861.59;5048570;28;20045;-67
2021/07/15 06:36:15;;;;;;;1999.90;999.90;;;;;;;23.16;96.88;97855.53;5049037;28;20052;-66
2021/07/15 06:38:41;;;;;;;1999.90;999.90;;;;;;;23.31;95.75;97853.31;5049353;28;20077;-67
2021/07/15 06:41:10;;;;;;;1999.90;999.90;;;;;;;23.15;96.73;97859.56;5050244;28;20045;-66
2021/07/15 06:43:41;;;;;;;1999.90;999.90;;;;;;;22.82;99.16;97854.31;5049844;28;20453;-66
2021/07/15 06:46:08;;;;;;;1999.90;999.90;;;;;;;22.80;99.19;97856.72;5043288;28;20098;-66
2021/07/15 06:48:35;;;;;;;1999.90;999.90;;;;;;;23.12;97.43;97849.13;5049905;28;20049;-66
2021/07/15 06:51:03;;;;;;;1999.90;999.90;;;;;;;23.62;94.89;97839.97;5050172;28;20491;-66
2021/07/15 06:53:29;;;;;;;1999.90;999.90;;;;;;;23.72;94.27;97849.50;5049011;28;20095;-66
2021/07/15 06:55:58;;;;;;;1999.90;999.90;;;;;;;23.73;93.66;97846.25;5049493;28;20495;-67
2021/07/15 06:58:25;;;;;;;1999.90;999.90;;;;;;;23.81;92.94;97841.31;5049719;28;20564;-66
2021/07/15 07:00:55;;;;;;;1999.90;999.90;;;;;;;23.49;94.35;97839.78;5048639;28;20550;-66
2021/07/15 07:03:22;;;;;;;1999.90;999.90;;;;;;;23.48;94.77;97838.16;5049089;28;20131;-66
2021/07/15 07:05:53;;;;;;;1999.90;999.90;;;;;;;23.90;93.35;97827.47;5049056;28;20049;-66
2021/07/15 07:08:19;;;;;;;1999.90;999.90;;;;;;;23.99;91.94;97826.13;5047585;28;20049;-66
2021/07/15 07:10:46;;;;;;;1999.90;999.90;;;;;;;24.08;92.31;97815.09;5049158;28;20047;-66
2021/07/15 07:13:13;;;;;;;1999.90;999.90;;;;;;;24.20;91.51;97813.66;5049898;28;20061;-66
2021/07/15 07:15:40;;;;;;;1999.90;999.90;;;;;;;24.46;92.18;97809.16;5048744;28;20544;-66
2021/07/15 07:18:06;;;;;;;1999.90;999.90;;;;;;;24.48;92.02;97803.88;5049081;28;20495;-66
2021/07/15 07:20:33;;;;;;;1999.90;999.90;;;;;;;24.56;90.23;97811.00;5048759;28;20056;-66
2021/07/15 07:22:59;;;;;;;1999.90;999.90;;;;;;;24.68;90.13;97812.38;5048785;28;20124;-66
2021/07/15 07:25:26;;;;;;;1999.90;999.90;;;;;;;24.50;90.04;97817.56;5048218;28;20057;-66
2021/07/15 07:27:53;;;;;;;1999.90;999.90;;;;;;;24.66;89.38;97816.91;5049850;28;20056;-66
2021/07/15 07:30:19;;;;;;;1999.90;999.90;;;;;;;24.99;88.65;97828.34;5048802;28;20131;-66
2021/07/15 07:32:46;;;;;;;1999.90;999.90;;;;;;;25.05;88.69;97826.59;5049129;28;20076;-66
2021/07/15 07:35:15;;;;;;;1999.90;999.90;;;;;;;25.21;86.97;97832.31;5049975;28;20084;-66
2021/07/15 07:37:43;;;;;;;1999.90;999.90;;;;;;;25.38;87.17;97832.38;5047702;28;20126;-66
2021/07/15 07:40:11;;;;;;;1999.90;999.90;;;;;;;24.70;88.80;97826.09;5048765;28;20045;-66
2021/07/15 07:42:40;;;;;;;1999.90;999.90;;;;;;;24.98;86.41;97832.41;5049666;28;20056;-66
2021/07/15 07:45:09;;;;;;;1999.90;999.90;;;;;;;24.86;88.91;97831.03;5048570;28;20041;-66
2021/07/15 07:47:36;;;;;;;1999.90;999.90;;;;;;;24.29;89.13;97833.69;5052819;28;20049;-66
2021/07/15 07:50:05;;;;;;;1999.90;999.90;;;;;;;23.89;91.73;97840.00;5053353;28;20139;-66
2021/07/15 07:52:32;;;;;;;1999.90;999.90;;;;;;;24.74;91.36;97843.78;5052251;28;20358;-66
2021/07/15 07:54:58;;;;;;;1999.90;999.90;;;;;;;25.11;88.01;97864.44;5051966;28;20045;-66
2021/07/15 07:57:25;;;;;;;1999.90;999.90;;;;;;;25.05;87.95;97875.47;5053269;28;20057;-66
2021/07/15 07:59:53;;;;;;;1999.90;999.90;;;;;;;24.79;88.71;97886.47;5052743;28;20249;-66
2021/07/15 08:02:20;;;;;;;1999.90;999.90;;;;;;;25.01;88.61;97882.44;5051542;28;20049;-65
2021/07/15 08:04:47;;;;;;;1999.90;999.90;;;;;;;25.11;87.35;97893.53;5053486;28;20049;-65
2021/07/15 08:07:15;;;;;;;1999.90;999.90;;;;;;;24.56;87.99;97898.59;5052766;28;20075;-65
2021/07/15 08:09:46;;;;;;;1999.90;999.90;;;;;;;25.03;86.96;97908.25;5051670;28;20045;-65
2021/07/15 08:12:15;;;;;;;1999.90;999.90;;;;;;;25.22;86.12;97909.47;5053097;28;20048;-65
2021/07/15 08:14:44;;;;;;;1999.90;999.90;;;;;;;24.82;85.93;97913.09;5052926;28;20044;-65
2021/07/15 08:17:10;;;;;;;1999.90;999.90;;;;;;;24.96;86.25;97910.00;5051670;28;20049;-65
2021/07/15 08:19:37;;;;;;;1999.90;999.90;;;;;;;25.36;84.90;97902.78;5050654;28;20045;-65
2021/07/15 08:22:04;;;;;;;1999.90;999.90;;;;;;;25.48;84.32;97904.94;5052842;28;20049;-65
2021/07/15 08:24:31;;;;;;;1999.90;999.90;;;;;;;25.53;83.36;97909.28;5051739;28;20128;-65
2021/07/15 08:26:58;;;;;;;1999.90;999.90;;;;;;;25.87;82.88;97911.75;5052601;28;20049;-65
2021/07/15 08:29:25;;;;;;;1999.90;999.90;;;;;;;25.96;81.09;97917.63;5050980;28;20049;-65
2021/07/15 08:31:51;;;;;;;1999.90;999.90;;;;;;;25.66;79.85;97919.50;5049935;28;20442;-65
2021/07/15 08:34:18;;;;;;;1999.90;999.90;;;;;;;25.97;80.21;97921.22;5052256;28;20087;-65
2021/07/15 08:36:45;;;;;;;1999.90;999.90;;;;;;;25.93;79.63;97926.19;5052567;28;20160;-65
2021/07/15 08:39:11;;;;;;;1999.90;999.90;;;;;;;26.46;77.72;97923.34;5051104;28;20483;-65
2021/07/15 08:41:38;;;;;;;1999.90;999.90;;;;;;;26.33;77.33;97926.06;5051874;28;20045;-65
2021/07/15 08:44:05;;;;;;;1999.90;999.90;;;;;;;26.36;77.02;97934.50;5051344;28;20044;-65
2021/07/15 08:46:38;;;;;;;1999.90;999.90;;;;;;;26.27;78.05;97937.13;5051322;28;20056;-65
2021/07/15 08:49:06;;;;;;;1999.90;999.90;;;;;;;26.67;76.50;97951.16;5051563;28;20118;-65
2021/07/15 08:51:33;;;;;;;1999.90;999.90;;;;;;;26.52;77.12;97953.53;5052618;28;20352;-65
2021/07/15 08:54:00;;;;;;;1999.90;999.90;;;;;;;26.52;75.60;97944.22;5050161;28;20519;-64
2021/07/15 08:56:36;;;;;;;1999.90;999.90;;;;;;;26.73;75.20;97945.75;5050898;28;20098;-65
2021/07/15 08:59:09;;;;;;;1999.90;999.90;;;;;;;27.39;74.95;97940.72;5051375;28;20119;-65
2021/07/15 09:01:36;;;;;;;1999.90;999.90;;;;;;;27.36;73.22;97950.16;5050202;28;20059;-65
2021/07/15 09:04:04;;;;;;;1999.90;999.90;;;;;;;27.60;73.21;97944.19;5051259;28;20057;-65
2021/07/15 09:06:31;;;;;;;1999.90;999.90;;;;;;;27.84;72.88;97938.19;5052321;28;20393;-65
2021/07/15 09:08:58;;;;;;;1999.90;999.90;;;;;;;27.48;72.41;97953.47;5051812;28;20064;-65
2021/07/15 09:11:25;;;;;;;1999.90;999.90;;;;;;;27.64;72.34;97939.19;5050486;28;20107;-65
2021/07/15 09:13:52;;;;;;;1999.90;999.90;;;;;;;27.97;68.70;97939.03;5051501;28;20350;-65
2021/07/15 09:16:19;;;;;;;1999.90;999.90;;;;;;;27.93;70.06;97944.00;5051808;28;20119;-65
2021/07/15 09:19:00;;;;;;;1999.90;999.90;;;;;;;27.84;71.61;97932.50;5050571;28;20071;-64
2021/07/15 09:21:34;;;;;;;1999.90;999.90;;;;;;;28.14;71.30;97931.19;5050175;28;20048;-65
2021/07/15 09:24:03;;;;;;;1999.90;999.90;;;;;;;28.63;68.47;97936.50;5051922;28;20362;-65
2021/07/15 09:26:31;;;;;;;1999.90;999.90;;;;;;;28.58;67.19;97939.09;5049263;28;20052;-65
2021/07/15 09:29:17;;;;;;;1999.90;999.90;;;;;;;27.86;69.43;97939.34;5050821;28;20389;-65
2021/07/15 09:32:16;;;;;;;1999.90;999.90;;;;;;;26.64;71.91;97932.16;5050535;28;20059;-65
2021/07/15 09:34:43;;;;;;;1999.90;999.90;;;;;;;26.88;73.77;97931.97;5050256;28;20056;-65
2021/07/15 09:37:12;;;;;;;1999.90;999.90;;;;;;;27.00;73.03;97939.75;5050211;28;20499;-65
2021/07/15 09:39:47;;;;;;;1999.90;999.90;;;;;;;26.94;72.59;97935.88;5050816;28;20415;-65
2021/07/15 09:42:19;;;;;;;1999.90;999.90;;;;;;;27.10;72.94;97935.03;5051612;28;20057;-65
2021/07/15 09:44:50;;;;;;;1999.90;999.90;;;;;;;27.65;71.13;97931.47;5045965;28;20056;-65
2021/07/15 09:47:29;;;;;;;1999.90;999.90;;;;;;;27.20;72.34;97939.63;5050486;28;20098;-65
2021/07/15 09:49:56;;;;;;;1999.90;999.90;;;;;;;28.03;71.71;97937.22;5050739;28;20069;-64
2021/07/15 09:52:23;;;;;;;1999.90;999.90;;;;;;;28.44;67.75;97938.31;5050834;28;20302;-65
2021/07/15 09:54:49;;;;;;;1999.90;999.90;;;;;;;28.49;67.59;97944.69;5046696;28;20045;-65
2021/07/15 09:57:27;;;;;;;1999.90;999.90;;;;;;;28.09;71.99;97943.94;5048855;28;20094;-65
2021/07/15 09:59:58;;;;;;;1999.90;999.90;;;;;;;29.00;68.44;97944.59;5050291;28;20049;-65
2021/07/15 10:02:32;;;;;;;1999.90;999.90;;;;;;;29.31;68.04;97949.59;5048415;28;20268;-65
2021/07/15 10:05:00;;;;;;;1999.90;999.90;;;;;;;29.10;66.03;97940.56;5051022;28;20099;-65
2021/07/15 10:07:27;;;;;;;1999.90;999.90;;;;;;;29.24;64.74;97947.03;5050725;28;20129;-65
2021/07/15 10:10:17;;;;;;;1999.90;999.90;;;;;;;28.26;66.27;97935.28;5049109;28;20056;-65
2021/07/15 10:12:43;;;;;;;1999.90;999.90;;;;;;;28.45;69.50;97931.41;5050361;28;20068;-65
2021/07/15 10:15:12;;;;;;;1999.90;999.90;;;;;;;29.08;67.36;97930.91;5050162;28;20072;-65
2021/07/15 10:17:41;;;;;;;1999.90;999.90;;;;;;;28.70;67.16;97932.59;5050278;28;20223;-65
2021/07/15 10:20:18;;;;;;;1999.90;999.90;;;;;;;28.97;67.57;97934.13;5049787;28;20063;-66
2021/07/15 10:22:54;;;;;;;1999.90;999.90;;;;;;;29.89;64.20;97930.38;5049787;28;20079;-65
2021/07/15 10:25:20;;;;;;;1999.90;999.90;;;;;;;27.85;68.01;97934.09;5049998;28;20052;-64
2021/07/15 10:27:48;;;;;;;1999.90;999.90;;;;;;;28.72;69.12;97924.44;5049780;28;20055;-64
2021/07/15 10:30:18;;;;;;;1999.90;999.90;;;;;;;28.76;70.66;97925.09;5050276;28;20495;-64
2021/07/15 10:32:44;;;;;;;1999.90;999.90;;;;;;;29.06;66.75;97924.88;5050067;28;20095;-64
2021/07/15 10:35:12;;;;;;;1999.90;999.90;;;;;;;28.72;66.90;97927.28;5049528;28;20102;-64
2021/07/15 10:37:41;;;;;;;1999.90;999.90;;;;;;;29.17;64.97;97923.22;5048871;28;20273;-64
2021/07/15 10:40:11;;;;;;;1999.90;999.90;;;;;;;29.62;64.17;97926.88;5049962;28;20882;-65
2021/07/15 10:42:38;;;;;;;1999.90;999.90;;;;;;;29.87;63.24;97930.84;5049231;28;20053;-65
2021/07/15 10:45:07;;;;;;;1999.90;999.90;;;;;;;30.40;60.46;97927.13;5049403;28;20049;-65
2021/07/15 10:47:35;;;;;;;1999.90;999.90;;;;;;;29.97;64.27;97918.25;5050291;28;20393;-65
2021/07/15 10:50:03;;;;;;;1999.90;999.90;;;;;;;30.85;59.68;97916.28;5049303;28;20114;-65
2021/07/15 10:52:32;;;;;;;1999.90;999.90;;;;;;;31.21;60.09;97918.38;5049690;28;20048;-65
2021/07/15 10:55:00;;;;;;;1999.90;999.90;;;;;;;31.95;59.23;97923.97;5051098;28;20040;-65
2021/07/15 10:57:27;;;;;;;1999.90;999.90;;;;;;;31.87;56.17;97919.84;5048903;28;20064;-65
2021/07/15 11:00:14;;;;;;;1999.90;999.90;;;;;;;30.71;60.37;97920.53;5049500;28;20053;-65
2021/07/15 11:02:40;;;;;;;1999.90;999.90;;;;;;;31.51;60.28;97918.66;5042606;28;20080;-65
2021/07/15 11:05:24;;;;;;;1999.90;999.90;;;;;;;31.55;58.03;97915.63;5049162;28;20056;-65